createdAt,value
2022-10-05T00:01:31.994Z,8.20
2022-10-05T00:04:12.360Z,10.75
2022-10-05T00:06:39.986Z,9.25
2022-10-05T00:09:18.262Z,10.43
2022-10-05T00:11:45.547Z,20.63
2022-10-05T00:14:23.962Z,13.60
2022-10-05T00:16:51.855Z,16.77
2022-10-05T00:19:38.730Z,15.20
2022-10-05T00:22:17.566Z,16.05
2022-10-05T00:24:46.527Z,16.00
2022-10-05T00:27:27.322Z,15.63
2022-10-05T00:30:02.224Z,17.02
2022-10-05T00:32:29.118Z,14.05
2022-10-05T00:34:57.765Z,12.85
2022-10-05T00:37:24.703Z,14.77
2022-10-05T00:39:51.612Z,20.52
2022-10-05T00:42:48.351Z,13.00
2022-10-05T00:45:31.307Z,9.98
2022-10-05T00:48:13.774Z,19.08
2022-10-05T00:51:14.203Z,20.85
2022-10-05T00:54:23.400Z,15.65
2022-10-05T00:57:25.851Z,13.60
2022-10-05T01:00:17.334Z,10.77
2022-10-05T01:03:07.447Z,10.45
2022-10-05T01:06:19.114Z,15.32
2022-10-05T01:09:05.101Z,12.93
2022-10-05T01:11:50.269Z,13.27
2022-10-05T01:14:32.514Z,11.40
2022-10-05T01:17:08.078Z,17.10
2022-10-05T01:20:31.978Z,15.13
2022-10-05T01:23:41.812Z,14.18
2022-10-05T01:26:36.113Z,11.40
2022-10-05T01:29:24.756Z,9.55
2022-10-05T01:32:17.181Z,14.63
2022-10-05T01:35:40.731Z,16.38
2022-10-05T01:38:30.541Z,14.45
2022-10-05T01:41:41.368Z,12.82
2022-10-05T01:44:16.483Z,11.93
2022-10-05T01:46:59.121Z,11.45
2022-10-05T01:49:36.705Z,12.68
2022-10-05T01:52:21.958Z,12.88
2022-10-05T01:54:51.637Z,12.98
2022-10-05T01:57:57.812Z,12.30
2022-10-05T02:03:04.129Z,9.15
2022-10-05T02:06:25.670Z,11.43
2022-10-05T02:09:05.790Z,11.65
2022-10-05T02:11:34.149Z,8.50
2022-10-05T02:14:11.070Z,11.85
2022-10-05T02:16:47.133Z,13.18
2022-10-05T02:19:19.494Z,11.63
2022-10-05T02:21:58.174Z,9.40
2022-10-05T02:24:34.829Z,11.55
2022-10-05T02:27:04.866Z,12.73
2022-10-05T02:29:39.657Z,9.82
2022-10-05T02:34:49.857Z,10.45
2022-10-05T02:37:43.115Z,11.68
2022-10-05T02:40:19.361Z,12.98
2022-10-05T02:42:52.222Z,11.60
2022-10-05T02:45:29.506Z,11.20
2022-10-05T02:48:11.384Z,11.32
2022-10-05T02:50:55.821Z,12.07
2022-10-05T02:53:52.004Z,11.82
2022-10-05T02:57:07.040Z,10.03
2022-10-05T02:59:38.506Z,11.88
2022-10-05T03:02:17.764Z,15.93
2022-10-05T03:05:30.727Z,12.07
2022-10-05T03:08:16.947Z,14.27
2022-10-05T03:11:25.334Z,14.25
2022-10-05T03:14:13.406Z,16.20
2022-10-05T03:17:19.449Z,13.00
2022-10-05T03:20:18.657Z,16.73
2022-10-05T03:23:04.501Z,17.13
2022-10-05T03:26:01.404Z,16.75
2022-10-05T03:28:57.987Z,20.92
2022-10-05T03:31:33.209Z,19.80
2022-10-05T03:36:50.197Z,17.40
2022-10-05T03:39:34.912Z,14.70
2022-10-05T03:42:38.014Z,16.23
2022-10-05T03:45:24.010Z,17.02
2022-10-05T03:48:09.019Z,12.38
2022-10-05T03:51:16.003Z,13.00
2022-10-05T03:54:07.147Z,16.65
2022-10-05T03:56:49.212Z,13.48
2022-10-05T03:59:39.927Z,14.77
2022-10-05T04:02:31.904Z,12.02
2022-10-05T04:05:20.505Z,14.55
2022-10-05T04:08:10.222Z,11.13
2022-10-05T04:11:01.286Z,12.60
2022-10-05T04:13:42.760Z,14.88
2022-10-05T04:16:20.110Z,14.90
2022-10-05T04:19:21.932Z,13.05
2022-10-05T04:22:25.878Z,16.63
2022-10-05T04:25:06.573Z,13.98
2022-10-05T04:27:44.381Z,15.75
2022-10-05T04:30:20.423Z,16.13
2022-10-05T04:32:59.431Z,17.52
2022-10-05T04:35:44.686Z,13.75
2022-10-05T04:38:44.507Z,15.18
2022-10-05T04:41:53.268Z,14.07
2022-10-05T04:44:49.609Z,16.13
2022-10-05T04:47:56.577Z,16.65
2022-10-05T04:51:07.116Z,16.88
2022-10-05T04:53:53.157Z,17.65
2022-10-05T04:56:38.476Z,16.75
2022-10-05T05:02:42.345Z,15.10
2022-10-05T05:06:15.819Z,19.55
2022-10-05T05:09:14.161Z,15.77
2022-10-05T05:12:09.289Z,19.15
2022-10-05T05:15:11.074Z,17.98
2022-10-05T05:18:35.399Z,16.08
2022-10-05T05:21:32.883Z,17.48
2022-10-05T05:24:28.134Z,13.88
2022-10-05T05:27:11.385Z,16.15
2022-10-05T05:30:08.666Z,16.45
2022-10-05T05:33:10.532Z,17.77
2022-10-05T05:36:05.507Z,16.67
2022-10-05T05:38:41.543Z,17.35
2022-10-05T05:41:39.252Z,18.90
2022-10-05T05:44:20.030Z,19.20
2022-10-05T05:47:04.308Z,13.88
2022-10-05T05:50:07.366Z,13.50
2022-10-05T05:52:43.181Z,13.38
2022-10-05T05:55:20.273Z,16.70
2022-10-05T05:57:56.659Z,16.38
2022-10-05T06:00:41.113Z,14.27
2022-10-05T06:03:42.186Z,14.55
2022-10-05T06:06:17.019Z,11.77
2022-10-05T06:08:59.440Z,17.55
2022-10-05T06:11:55.040Z,17.05
2022-10-05T06:14:50.241Z,12.50
2022-10-05T06:17:57.672Z,12.45
2022-10-05T06:21:00.601Z,13.73
2022-10-05T06:23:58.462Z,11.88
2022-10-05T06:26:59.452Z,12.15
2022-10-05T06:30:13.967Z,11.93
2022-10-05T06:33:06.504Z,12.48
2022-10-05T06:36:10.727Z,8.48
2022-10-05T06:38:58.372Z,12.50
2022-10-05T06:42:25.799Z,7.68
2022-10-05T06:45:39.727Z,8.13
2022-10-05T06:48:49.267Z,13.18
2022-10-05T06:51:55.805Z,15.48
2022-10-05T06:54:58.504Z,8.95
2022-10-05T06:58:20.905Z,8.63
2022-10-05T07:01:03.153Z,9.23
2022-10-05T07:03:48.442Z,10.60
2022-10-05T07:06:23.967Z,12.18
2022-10-05T07:09:10.415Z,9.23
2022-10-05T07:12:17.116Z,13.10
2022-10-05T07:15:03.513Z,10.80
2022-10-05T07:17:49.560Z,6.45
2022-10-05T07:20:16.631Z,10.43
2022-10-05T07:23:02.223Z,6.68
2022-10-05T07:25:52.342Z,6.63
2022-10-05T07:29:06.975Z,8.73
2022-10-05T07:32:48.069Z,10.02
2022-10-05T07:40:18.269Z,12.68
2022-10-05T07:51:41.371Z,9.05
2022-10-05T07:54:41.109Z,11.23
2022-10-05T07:57:41.064Z,10.93
2022-10-05T08:00:43.899Z,7.97
2022-10-05T08:03:33.681Z,9.40
2022-10-05T08:06:05.771Z,8.98
2022-10-05T08:09:13.135Z,8.35
2022-10-05T08:12:34.662Z,7.43
2022-10-05T08:15:38.932Z,11.98
2022-10-05T08:23:27.180Z,10.13
2022-10-05T08:26:26.715Z,9.15
2022-10-05T08:29:15.172Z,10.35
2022-10-05T08:35:10.326Z,7.47
2022-10-05T08:37:49.685Z,7.68
2022-10-05T08:40:49.789Z,10.18
2022-10-05T08:44:19.546Z,12.30
2022-10-05T08:47:05.404Z,8.43
2022-10-05T08:50:02.885Z,7.38
2022-10-05T08:53:03.830Z,10.13
2022-10-05T08:56:09.367Z,9.95
2022-10-05T08:59:00.437Z,7.55
2022-10-05T09:01:46.348Z,6.85
2022-10-05T09:04:59.074Z,10.02
2022-10-05T09:08:12.536Z,6.03
2022-10-05T09:11:00.862Z,7.75
2022-10-05T09:14:08.761Z,11.30
2022-10-05T09:17:46.578Z,7.15
2022-10-05T09:20:45.937Z,9.77
2022-10-05T09:23:38.450Z,9.35
2022-10-05T09:27:02.505Z,8.85
2022-10-05T09:30:09.691Z,7.43
2022-10-05T09:32:57.814Z,8.07
2022-10-05T09:36:18.586Z,8.35
2022-10-05T09:39:31.506Z,7.32
2022-10-05T09:42:58.032Z,9.85
2022-10-05T09:46:20.933Z,10.02
2022-10-05T09:49:41.550Z,8.85
2022-10-05T09:52:49.606Z,13.00
2022-10-05T09:55:55.295Z,5.95
2022-10-05T09:58:58.802Z,5.82
2022-10-05T10:02:21.494Z,10.48
2022-10-05T10:05:09.678Z,9.35
2022-10-05T10:08:32.318Z,12.73
2022-10-05T10:15:19.981Z,7.20
2022-10-05T10:18:11.229Z,7.72
2022-10-05T10:21:17.918Z,5.97
2022-10-05T10:24:36.204Z,8.55
2022-10-05T10:27:33.998Z,8.45
2022-10-05T10:34:36.005Z,8.90
2022-10-05T10:37:14.190Z,4.75
2022-10-05T10:40:30.574Z,10.30
2022-10-05T10:43:32.834Z,6.22
2022-10-05T10:46:30.986Z,6.18
2022-10-05T10:49:52.532Z,4.40
2022-10-05T10:53:08.371Z,4.57
2022-10-05T10:56:47.610Z,2.85
2022-10-05T10:59:57.211Z,5.03
2022-10-05T11:03:00.396Z,2.83
2022-10-05T11:06:20.966Z,4.93
2022-10-05T11:09:19.137Z,3.05
2022-10-05T11:12:35.227Z,5.30
2022-10-05T11:15:26.173Z,2.42
2022-10-05T11:18:32.696Z,7.65
2022-10-05T11:21:37.777Z,5.32
2022-10-05T11:24:42.956Z,3.17
2022-10-05T11:27:37.687Z,4.07
2022-10-05T11:30:51.166Z,1.83
2022-10-05T11:34:04.973Z,2.17
2022-10-05T11:36:59.966Z,2.63
2022-10-05T11:40:16.760Z,2.23
2022-10-05T11:43:13.992Z,3.35
2022-10-05T11:46:24.428Z,4.38
2022-10-05T11:49:35.386Z,4.10
2022-10-05T11:52:38.267Z,7.53
2022-10-05T11:55:42.590Z,3.00
2022-10-05T11:58:54.142Z,3.75
2022-10-05T12:01:49.602Z,4.05
2022-10-05T12:04:53.250Z,3.40
2022-10-05T12:08:41.961Z,4.32
2022-10-05T12:11:46.896Z,1.65
2022-10-05T12:15:14.475Z,2.78
2022-10-05T12:17:55.533Z,3.47
2022-10-05T12:20:40.936Z,2.08
2022-10-05T12:23:30.712Z,3.08
2022-10-05T12:26:16.237Z,3.42
2022-10-05T12:29:07.729Z,3.53
2022-10-05T12:31:54.560Z,0.95
2022-10-05T12:34:44.337Z,4.63
2022-10-05T12:37:53.145Z,4.55
2022-10-05T12:40:47.587Z,6.82
2022-10-05T12:43:41.948Z,2.08
2022-10-05T12:46:27.506Z,2.88
2022-10-05T12:49:38.027Z,10.43
2022-10-05T12:52:19.028Z,2.28
2022-10-05T12:54:57.978Z,2.85
2022-10-05T12:58:17.228Z,4.55
2022-10-05T13:01:04.774Z,2.83
2022-10-05T13:03:45.242Z,4.35
2022-10-05T13:06:41.331Z,3.60
2022-10-05T13:09:23.762Z,3.25
2022-10-05T13:12:01.531Z,3.67
2022-10-05T13:15:01.657Z,4.15
2022-10-05T13:18:09.196Z,2.38
2022-10-05T13:20:49.800Z,6.70
2022-10-05T13:23:35.353Z,3.20
2022-10-05T13:26:21.780Z,2.38
2022-10-05T13:28:58.928Z,4.35
2022-10-05T13:31:36.685Z,4.93
2022-10-05T13:34:32.285Z,4.25
2022-10-05T13:37:05.836Z,4.22
2022-10-05T13:40:04.107Z,3.60
2022-10-05T13:43:04.872Z,5.60
2022-10-05T13:46:13.157Z,4.10
2022-10-05T13:49:01.672Z,3.95
2022-10-05T13:51:42.638Z,5.70
2022-10-05T13:54:40.431Z,4.30
2022-10-05T13:57:45.242Z,1.27
2022-10-05T14:00:27.091Z,6.18
2022-10-05T14:03:00.990Z,3.67
2022-10-05T14:05:31.246Z,2.95
2022-10-05T14:12:27.226Z,5.43
2022-10-05T14:15:12.587Z,9.23
2022-10-05T14:17:43.436Z,4.68
2022-10-05T14:20:23.464Z,5.18
2022-10-05T14:23:05.643Z,10.70
2022-10-05T14:25:50.426Z,10.88
2022-10-05T14:28:38.968Z,3.03
2022-10-05T14:31:32.012Z,7.75
2022-10-05T14:34:39.258Z,6.10
2022-10-05T14:37:26.618Z,6.88
2022-10-05T14:40:25.110Z,4.88
2022-10-05T14:42:52.510Z,6.68
2022-10-05T14:45:23.731Z,6.15
2022-10-05T14:55:55.410Z,4.10
2022-10-05T14:58:48.803Z,8.07
2022-10-05T15:02:06.217Z,10.10
2022-10-05T15:05:01.752Z,5.65
2022-10-05T15:07:41.214Z,5.25
2022-10-05T15:10:42.066Z,5.25
2022-10-05T15:13:17.196Z,9.55
2022-10-05T15:16:04.611Z,9.85
2022-10-05T15:18:58.952Z,10.70
2022-10-05T15:22:15.541Z,19.25
2022-10-05T15:25:26.948Z,15.70
2022-10-05T15:29:10.103Z,4.13
2022-10-05T15:31:58.116Z,7.88
2022-10-05T15:34:40.964Z,5.85
2022-10-05T15:37:25.018Z,5.68
2022-10-05T15:40:03.536Z,5.30
2022-10-05T15:42:43.021Z,5.82
2022-10-05T15:45:40.255Z,10.88
2022-10-05T15:48:23.536Z,12.98
2022-10-05T15:51:37.178Z,17.52
2022-10-05T15:54:40.667Z,14.88
2022-10-05T15:57:46.300Z,8.35
2022-10-05T16:00:19.869Z,10.02
2022-10-05T16:03:09.509Z,8.63
2022-10-05T16:06:35.785Z,3.45
2022-10-05T16:10:01.358Z,3.75
2022-10-05T16:13:06.075Z,3.92
2022-10-05T16:16:29.001Z,3.83
2022-10-05T16:19:33.603Z,6.10
2022-10-05T16:22:24.896Z,7.18
2022-10-05T16:25:13.963Z,7.97
2022-10-05T16:28:35.335Z,12.27
2022-10-05T16:31:05.951Z,6.05
2022-10-05T16:34:11.286Z,13.18
2022-10-05T16:37:28.423Z,12.00
2022-10-05T16:40:34.857Z,11.93
2022-10-05T16:43:21.702Z,7.60
2022-10-05T16:46:22.431Z,7.68
2022-10-05T16:49:38.629Z,3.97
2022-10-05T16:52:14.339Z,3.80
2022-10-05T16:54:53.613Z,4.63
2022-10-05T16:57:46.413Z,5.18
2022-10-05T17:00:52.038Z,2.83
2022-10-05T17:03:32.259Z,4.10
2022-10-05T17:06:20.085Z,2.95
2022-10-05T17:09:24.261Z,5.53
2022-10-05T17:12:42.281Z,7.55
2022-10-05T17:15:39.489Z,7.95
2022-10-05T17:18:49.229Z,7.50
2022-10-05T17:21:38.078Z,1.33
2022-10-05T17:24:34.271Z,5.50
2022-10-05T17:27:22.684Z,6.57
2022-10-05T17:30:15.328Z,4.68
2022-10-05T17:33:18.578Z,6.13
2022-10-05T17:36:10.433Z,4.50
2022-10-05T17:39:52.342Z,5.93
2022-10-05T17:42:34.510Z,8.23
2022-10-05T17:45:12.535Z,5.22
2022-10-05T17:48:01.351Z,6.80
2022-10-05T17:51:05.703Z,4.50
2022-10-05T17:54:05.159Z,7.70
2022-10-05T17:56:50.133Z,16.73
2022-10-05T17:59:46.860Z,9.57
2022-10-05T18:02:37.539Z,4.28
2022-10-05T18:05:05.179Z,3.92
2022-10-05T18:08:04.318Z,7.70
2022-10-05T18:10:40.411Z,4.35
2022-10-05T18:13:45.409Z,5.18
2022-10-05T18:17:07.249Z,3.75
2022-10-05T18:19:39.653Z,2.95
2022-10-05T18:22:28.417Z,4.90
2022-10-05T18:25:39.810Z,6.68
2022-10-05T18:28:39.514Z,4.68
2022-10-05T18:31:19.324Z,6.45
2022-10-05T18:34:20.349Z,4.97
2022-10-05T18:37:31.557Z,7.18
2022-10-05T18:41:11.949Z,4.95
2022-10-05T18:44:19.365Z,8.13
2022-10-05T18:52:01.267Z,4.30
2022-10-05T18:58:59.235Z,7.45
2022-10-05T19:01:50.169Z,4.38
2022-10-05T19:05:07.254Z,4.45
2022-10-05T19:12:41.351Z,3.88
2022-10-05T19:15:54.533Z,5.43
2022-10-05T19:19:10.114Z,3.63
2022-10-05T19:22:13.049Z,4.72
2022-10-05T19:25:36.953Z,5.93
2022-10-05T19:28:29.448Z,6.57
2022-10-05T19:31:30.451Z,5.13
2022-10-05T19:34:27.568Z,5.95
2022-10-05T19:37:10.544Z,7.47
2022-10-05T19:40:37.032Z,3.22
2022-10-05T19:58:36.474Z,6.70
2022-10-05T20:01:14.450Z,5.85
2022-10-05T20:04:02.572Z,5.78
2022-10-05T20:07:36.403Z,4.35
2022-10-05T20:10:38.633Z,2.42
2022-10-05T20:13:21.982Z,6.30
2022-10-05T20:33:50.554Z,4.35
2022-10-05T20:36:58.377Z,9.55
2022-10-05T20:39:36.926Z,3.13
2022-10-05T20:42:38.163Z,3.33
2022-10-05T20:45:22.262Z,6.75
2022-10-05T20:47:56.507Z,9.88
2022-10-05T20:50:23.760Z,4.32
2022-10-05T20:52:56.448Z,5.55
2022-10-05T20:55:39.130Z,7.93
2022-10-05T21:02:27.509Z,9.07
2022-10-05T21:05:02.660Z,11.77
2022-10-05T21:07:35.614Z,9.43
2022-10-05T21:10:03.987Z,14.07
2022-10-05T21:12:37.198Z,16.25
2022-10-05T21:15:16.128Z,12.35
2022-10-05T21:17:44.165Z,11.75
2022-10-05T21:20:13.907Z,10.05
2022-10-05T21:22:51.441Z,8.93
2022-10-05T21:25:34.365Z,8.40
2022-10-05T21:28:11.112Z,7.38
2022-10-05T21:30:39.342Z,7.75
2022-10-05T21:34:09.561Z,5.72
2022-10-05T21:36:39.887Z,7.47
2022-10-05T21:39:45.695Z,6.45
2022-10-05T21:42:25.815Z,5.97
2022-10-05T21:44:53.367Z,8.57
2022-10-05T21:50:12.327Z,6.68
2022-10-05T21:52:46.423Z,4.57
2022-10-05T21:58:31.124Z,6.43
2022-10-05T22:10:38.634Z,3.30
2022-10-05T22:13:09.782Z,5.03
2022-10-05T22:15:46.658Z,3.42
2022-10-05T22:18:18.479Z,2.90
2022-10-05T22:20:52.158Z,4.38
2022-10-05T22:23:20.062Z,4.63
2022-10-05T22:25:48.183Z,6.88
2022-10-05T22:28:16.893Z,3.40
2022-10-05T22:30:46.902Z,3.30
2022-10-05T22:33:14.002Z,3.10
2022-10-05T22:35:47.240Z,3.75
2022-10-05T22:38:35.599Z,3.70
2022-10-05T22:41:29.129Z,1.88
2022-10-05T22:43:56.305Z,4.22
2022-10-05T22:46:23.188Z,1.90
2022-10-05T22:48:50.080Z,1.52
2022-10-05T22:51:17.051Z,1.50
2022-10-05T22:53:44.254Z,2.28
2022-10-05T22:56:13.734Z,1.13
2022-10-05T22:58:54.930Z,0.82
2022-10-05T23:01:27.108Z,2.78
2022-10-05T23:03:55.551Z,1.33
2022-10-05T23:06:23.950Z,0.88
2022-10-05T23:08:50.924Z,1.33
2022-10-05T23:11:23.530Z,1.35
2022-10-05T23:13:52.149Z,3.30
2022-10-05T23:16:22.015Z,1.23
2022-10-05T23:18:51.887Z,0.65
2022-10-05T23:21:56.320Z,1.42
2022-10-05T23:24:23.782Z,2.33
2022-10-05T23:26:50.655Z,1.85
2022-10-05T23:29:17.658Z,2.00
2022-10-05T23:31:44.528Z,2.25
2022-10-05T23:34:31.185Z,2.05
2022-10-05T23:37:18.252Z,1.25
2022-10-05T23:39:49.813Z,1.33
2022-10-05T23:42:19.805Z,2.40
2022-10-05T23:44:46.836Z,2.85
2022-10-05T23:47:13.736Z,2.13
2022-10-05T23:49:43.447Z,6.10
2022-10-05T23:52:11.500Z,3.03
2022-10-05T23:54:40.298Z,5.30
2022-10-05T23:57:36.881Z,4.10
